sensor_id;sensor_type;location;lat;lon;timestamp;P1;durP1;ratioP1;P2;durP2;ratioP2
51778;SDS011;37843;53.266;6.746;2022-08-11T00:02:06;4.30;;;3.90;;
51778;SDS011;37843;53.266;6.746;2022-08-11T00:04:33;4.32;;;3.92;;
51778;SDS011;37843;53.266;6.746;2022-08-11T00:07:02;4.70;;;3.72;;
51778;SDS011;37843;53.266;6.746;2022-08-11T00:09:33;4.05;;;3.75;;
51778;SDS011;37843;53.266;6.746;2022-08-11T00:12:00;5.40;;;4.45;;
51778;SDS011;37843;53.266;6.746;2022-08-11T00:14:28;7.13;;;4.07;;
51778;SDS011;37843;53.266;6.746;2022-08-11T00:16:55;5.43;;;4.93;;
51778;SDS011;37843;53.266;6.746;2022-08-11T00:19:23;4.43;;;4.03;;
51778;SDS011;37843;53.266;6.746;2022-08-11T00:21:49;5.35;;;3.97;;
51778;SDS011;37843;53.266;6.746;2022-08-11T00:24:16;4.57;;;4.05;;
51778;SDS011;37843;53.266;6.746;2022-08-11T00:26:49;4.78;;;4.18;;
51778;SDS011;37843;53.266;6.746;2022-08-11T00:29:16;4.28;;;3.78;;
51778;SDS011;37843;53.266;6.746;2022-08-11T00:31:53;4.50;;;4.07;;
51778;SDS011;37843;53.266;6.746;2022-08-11T00:34:24;3.75;;;3.40;;
51778;SDS011;37843;53.266;6.746;2022-08-11T00:37:07;4.45;;;4.05;;
51778;SDS011;37843;53.266;6.746;2022-08-11T00:39:35;4.78;;;3.83;;
51778;SDS011;37843;53.266;6.746;2022-08-11T00:47:14;3.85;;;3.55;;
51778;SDS011;37843;53.266;6.746;2022-08-11T00:49:44;4.55;;;4.15;;
51778;SDS011;37843;53.266;6.746;2022-08-11T00:57:21;5.25;;;4.72;;
51778;SDS011;37843;53.266;6.746;2022-08-11T01:02:18;5.80;;;4.45;;
51778;SDS011;37843;53.266;6.746;2022-08-11T01:23:03;5.35;;;4.55;;
51778;SDS011;37843;53.266;6.746;2022-08-11T01:25:47;5.45;;;4.47;;
51778;SDS011;37843;53.266;6.746;2022-08-11T01:34:10;4.63;;;4.22;;
51778;SDS011;37843;53.266;6.746;2022-08-11T01:50:18;5.55;;;4.53;;
51778;SDS011;37843;53.266;6.746;2022-08-11T01:55:38;4.43;;;4.03;;
51778;SDS011;37843;53.266;6.746;2022-08-11T01:58:12;4.75;;;4.32;;
51778;SDS011;37843;53.266;6.746;2022-08-11T02:00:49;4.70;;;4.30;;
51778;SDS011;37843;53.266;6.746;2022-08-11T02:03:19;6.10;;;4.18;;
51778;SDS011;37843;53.266;6.746;2022-08-11T02:08:58;4.57;;;4.18;;
51778;SDS011;37843;53.266;6.746;2022-08-11T02:11:31;4.90;;;4.30;;
51778;SDS011;37843;53.266;6.746;2022-08-11T02:16:43;5.03;;;4.50;;
51778;SDS011;37843;53.266;6.746;2022-08-11T02:24:51;4.93;;;4.10;;
51778;SDS011;37843;53.266;6.746;2022-08-11T02:27:20;6.65;;;4.22;;
51778;SDS011;37843;53.266;6.746;2022-08-11T02:30:03;5.43;;;4.03;;
51778;SDS011;37843;53.266;6.746;2022-08-11T02:35:29;4.43;;;4.10;;
51778;SDS011;37843;53.266;6.746;2022-08-11T02:43:16;4.72;;;4.00;;
51778;SDS011;37843;53.266;6.746;2022-08-11T02:45:53;4.45;;;4.05;;
51778;SDS011;37843;53.266;6.746;2022-08-11T02:54:00;4.25;;;3.83;;
51778;SDS011;37843;53.266;6.746;2022-08-11T02:59:21;3.55;;;3.22;;
51778;SDS011;37843;53.266;6.746;2022-08-11T03:12:40;4.18;;;3.78;;
51778;SDS011;37843;53.266;6.746;2022-08-11T03:15:45;4.35;;;3.95;;
51778;SDS011;37843;53.266;6.746;2022-08-11T03:18:41;4.20;;;3.85;;
51778;SDS011;37843;53.266;6.746;2022-08-11T03:21:25;4.45;;;4.05;;
51778;SDS011;37843;53.266;6.746;2022-08-11T03:24:02;4.72;;;4.32;;
51778;SDS011;37843;53.266;6.746;2022-08-11T03:31:55;3.60;;;3.30;;
51778;SDS011;37843;53.266;6.746;2022-08-11T03:34:26;4.20;;;3.10;;
51778;SDS011;37843;53.266;6.746;2022-08-11T03:37:05;3.15;;;2.17;;
51778;SDS011;37843;53.266;6.746;2022-08-11T03:55:33;3.00;;;2.67;;
51778;SDS011;37843;53.266;6.746;2022-08-11T04:16:39;4.40;;;4.00;;
51778;SDS011;37843;53.266;6.746;2022-08-11T04:29:19;6.53;;;5.68;;
51778;SDS011;37843;53.266;6.746;2022-08-11T04:39:46;7.10;;;5.68;;
51778;SDS011;37843;53.266;6.746;2022-08-11T04:45:31;6.93;;;6.22;;
51778;SDS011;37843;53.266;6.746;2022-08-11T04:51:13;6.72;;;6.03;;
51778;SDS011;37843;53.266;6.746;2022-08-11T04:54:07;6.70;;;5.30;;
51778;SDS011;37843;53.266;6.746;2022-08-11T04:57:03;6.28;;;4.90;;
51778;SDS011;37843;53.266;6.746;2022-08-11T05:13:27;4.68;;;4.18;;
51778;SDS011;37843;53.266;6.746;2022-08-11T05:16:14;6.53;;;4.90;;
51778;SDS011;37843;53.266;6.746;2022-08-11T05:19:00;6.22;;;4.75;;
51778;SDS011;37843;53.266;6.746;2022-08-11T05:21:47;4.75;;;4.32;;
51778;SDS011;37843;53.266;6.746;2022-08-11T05:24:42;5.97;;;5.10;;
51778;SDS011;37843;53.266;6.746;2022-08-11T05:27:37;6.70;;;5.18;;
51778;SDS011;37843;53.266;6.746;2022-08-11T05:30:27;6.00;;;5.25;;
51778;SDS011;37843;53.266;6.746;2022-08-11T05:33:29;6.57;;;5.53;;
51778;SDS011;37843;53.266;6.746;2022-08-11T05:36:17;5.82;;;5.32;;
51778;SDS011;37843;53.266;6.746;2022-08-11T05:38:53;6.55;;;5.38;;
51778;SDS011;37843;53.266;6.746;2022-08-11T05:41:39;6.80;;;6.03;;
51778;SDS011;37843;53.266;6.746;2022-08-11T05:44:24;7.07;;;6.30;;
51778;SDS011;37843;53.266;6.746;2022-08-11T05:47:10;6.95;;;5.60;;
51778;SDS011;37843;53.266;6.746;2022-08-11T05:49:55;8.65;;;5.97;;
51778;SDS011;37843;53.266;6.746;2022-08-11T05:52:43;9.60;;;5.63;;
51778;SDS011;37843;53.266;6.746;2022-08-11T05:55:28;6.10;;;5.45;;
51778;SDS011;37843;53.266;6.746;2022-08-11T05:58:13;7.63;;;6.07;;
51778;SDS011;37843;53.266;6.746;2022-08-11T06:00:44;7.88;;;6.15;;
51778;SDS011;37843;53.266;6.746;2022-08-11T06:03:10;7.45;;;5.78;;
51778;SDS011;37843;53.266;6.746;2022-08-11T06:05:37;7.97;;;6.10;;
51778;SDS011;37843;53.266;6.746;2022-08-11T06:08:06;6.97;;;6.07;;
51778;SDS011;37843;53.266;6.746;2022-08-11T06:10:33;6.47;;;5.75;;
51778;SDS011;37843;53.266;6.746;2022-08-11T06:12:59;5.97;;;5.38;;
51778;SDS011;37843;53.266;6.746;2022-08-11T06:15:27;8.50;;;6.45;;
51778;SDS011;37843;53.266;6.746;2022-08-11T06:17:53;9.50;;;6.00;;
51778;SDS011;37843;53.266;6.746;2022-08-11T06:20:20;6.15;;;5.28;;
51778;SDS011;37843;53.266;6.746;2022-08-11T06:22:54;5.97;;;5.38;;
51778;SDS011;37843;53.266;6.746;2022-08-11T06:25:21;9.10;;;6.32;;
51778;SDS011;37843;53.266;6.746;2022-08-11T06:27:53;6.55;;;5.85;;
51778;SDS011;37843;53.266;6.746;2022-08-11T06:33:20;6.85;;;5.70;;
51778;SDS011;37843;53.266;6.746;2022-08-11T06:35:58;6.63;;;5.70;;
51778;SDS011;37843;53.266;6.746;2022-08-11T06:38:28;8.20;;;6.60;;
51778;SDS011;37843;53.266;6.746;2022-08-11T06:41:17;11.15;;;6.78;;
51778;SDS011;37843;53.266;6.746;2022-08-11T06:43:59;11.00;;;6.40;;
51778;SDS011;37843;53.266;6.746;2022-08-11T06:46:34;7.68;;;6.03;;
51778;SDS011;37843;53.266;6.746;2022-08-11T06:49:07;7.07;;;6.00;;
51778;SDS011;37843;53.266;6.746;2022-08-11T06:51:59;7.68;;;6.88;;
51778;SDS011;37843;53.266;6.746;2022-08-11T06:54:28;7.55;;;6.68;;
51778;SDS011;37843;53.266;6.746;2022-08-11T06:56:56;7.50;;;6.32;;
51778;SDS011;37843;53.266;6.746;2022-08-11T06:59:41;7.72;;;5.93;;
51778;SDS011;37843;53.266;6.746;2022-08-11T07:02:30;7.03;;;6.32;;
51778;SDS011;37843;53.266;6.746;2022-08-11T07:13:04;6.97;;;6.10;;
51778;SDS011;37843;53.266;6.746;2022-08-11T07:15:50;9.27;;;6.47;;
51778;SDS011;37843;53.266;6.746;2022-08-11T07:18:19;6.10;;;5.60;;
51778;SDS011;37843;53.266;6.746;2022-08-11T07:21:06;9.00;;;6.28;;
51778;SDS011;37843;53.266;6.746;2022-08-11T07:23:53;6.68;;;6.07;;
51778;SDS011;37843;53.266;6.746;2022-08-11T07:26:39;6.88;;;6.13;;
51778;SDS011;37843;53.266;6.746;2022-08-11T07:29:27;6.60;;;5.88;;
51778;SDS011;37843;53.266;6.746;2022-08-11T07:31:54;6.45;;;5.80;;
51778;SDS011;37843;53.266;6.746;2022-08-11T07:34:31;6.63;;;5.95;;
51778;SDS011;37843;53.266;6.746;2022-08-11T07:36:59;15.15;;;6.25;;
51778;SDS011;37843;53.266;6.746;2022-08-11T07:39:28;9.63;;;5.88;;
51778;SDS011;37843;53.266;6.746;2022-08-11T07:41:56;6.45;;;5.85;;
51778;SDS011;37843;53.266;6.746;2022-08-11T07:44:26;10.65;;;6.35;;
51778;SDS011;37843;53.266;6.746;2022-08-11T07:46:55;8.23;;;6.90;;
51778;SDS011;37843;53.266;6.746;2022-08-11T07:49:43;8.43;;;6.03;;
51778;SDS011;37843;53.266;6.746;2022-08-11T07:52:33;6.85;;;5.38;;
51778;SDS011;37843;53.266;6.746;2022-08-11T07:55:03;6.90;;;6.20;;
51778;SDS011;37843;53.266;6.746;2022-08-11T07:57:30;6.80;;;6.10;;
51778;SDS011;37843;53.266;6.746;2022-08-11T08:00:16;6.30;;;5.68;;
51778;SDS011;37843;53.266;6.746;2022-08-11T08:03:01;7.85;;;5.95;;
51778;SDS011;37843;53.266;6.746;2022-08-11T08:05:48;6.78;;;5.70;;
51778;SDS011;37843;53.266;6.746;2022-08-11T08:08:34;7.27;;;5.77;;
51778;SDS011;37843;53.266;6.746;2022-08-11T08:11:19;5.22;;;4.72;;
51778;SDS011;37843;53.266;6.746;2022-08-11T08:14:05;8.57;;;5.70;;
51778;SDS011;37843;53.266;6.746;2022-08-11T08:19:35;6.22;;;5.00;;
51778;SDS011;37843;53.266;6.746;2022-08-11T08:22:01;5.35;;;4.90;;
51778;SDS011;37843;53.266;6.746;2022-08-11T08:24:28;6.40;;;5.15;;
51778;SDS011;37843;53.266;6.746;2022-08-11T08:26:55;6.80;;;5.75;;
51778;SDS011;37843;53.266;6.746;2022-08-11T08:29:31;7.32;;;4.25;;
51778;SDS011;37843;53.266;6.746;2022-08-11T08:32:17;5.28;;;4.45;;
51778;SDS011;37843;53.266;6.746;2022-08-11T08:34:45;4.13;;;3.72;;
51778;SDS011;37843;53.266;6.746;2022-08-11T08:37:11;5.40;;;3.78;;
51778;SDS011;37843;53.266;6.746;2022-08-11T08:39:38;3.97;;;3.33;;
51778;SDS011;37843;53.266;6.746;2022-08-11T08:42:11;5.32;;;3.40;;
51778;SDS011;37843;53.266;6.746;2022-08-11T08:44:41;4.97;;;3.22;;
51778;SDS011;37843;53.266;6.746;2022-08-11T08:47:11;3.38;;;3.08;;
51778;SDS011;37843;53.266;6.746;2022-08-11T08:49:45;4.25;;;3.17;;
51778;SDS011;37843;53.266;6.746;2022-08-11T08:52:18;3.15;;;2.85;;
51778;SDS011;37843;53.266;6.746;2022-08-11T08:54:47;4.95;;;2.85;;
51778;SDS011;37843;53.266;6.746;2022-08-11T08:57:20;4.88;;;3.33;;
51778;SDS011;37843;53.266;6.746;2022-08-11T08:59:48;3.42;;;3.00;;
51778;SDS011;37843;53.266;6.746;2022-08-11T09:02:16;3.33;;;2.60;;
51778;SDS011;37843;53.266;6.746;2022-08-11T09:04:44;4.43;;;2.78;;
51778;SDS011;37843;53.266;6.746;2022-08-11T09:07:12;4.90;;;2.70;;
51778;SDS011;37843;53.266;6.746;2022-08-11T09:09:45;4.05;;;2.65;;
51778;SDS011;37843;53.266;6.746;2022-08-11T09:12:12;4.43;;;2.22;;
51778;SDS011;37843;53.266;6.746;2022-08-11T09:14:39;3.53;;;2.42;;
51778;SDS011;37843;53.266;6.746;2022-08-11T09:17:25;2.60;;;2.08;;
51778;SDS011;37843;53.266;6.746;2022-08-11T09:22:35;2.40;;;2.00;;
51778;SDS011;37843;53.266;6.746;2022-08-11T09:25:21;3.67;;;2.13;;
51778;SDS011;37843;53.266;6.746;2022-08-11T09:28:09;3.08;;;2.00;;
51778;SDS011;37843;53.266;6.746;2022-08-11T09:30:35;3.67;;;1.73;;
51778;SDS011;37843;53.266;6.746;2022-08-11T09:33:03;5.38;;;2.10;;
51778;SDS011;37843;53.266;6.746;2022-08-11T09:35:30;2.22;;;1.90;;
51778;SDS011;37843;53.266;6.746;2022-08-11T09:38:00;4.93;;;1.95;;
51778;SDS011;37843;53.266;6.746;2022-08-11T09:40:46;1.85;;;1.70;;
51778;SDS011;37843;53.266;6.746;2022-08-11T09:43:12;2.00;;;1.50;;
51778;SDS011;37843;53.266;6.746;2022-08-11T09:45:58;3.92;;;1.58;;
51778;SDS011;37843;53.266;6.746;2022-08-11T09:48:26;2.05;;;1.50;;
51778;SDS011;37843;53.266;6.746;2022-08-11T09:50:54;5.32;;;1.65;;
51778;SDS011;37843;53.266;6.746;2022-08-11T09:53:21;3.00;;;1.80;;
51778;SDS011;37843;53.266;6.746;2022-08-11T09:55:48;1.92;;;1.25;;
51778;SDS011;37843;53.266;6.746;2022-08-11T09:58:17;3.38;;;1.95;;
51778;SDS011;37843;53.266;6.746;2022-08-11T10:00:44;3.28;;;1.80;;
51778;SDS011;37843;53.266;6.746;2022-08-11T10:03:20;2.45;;;1.50;;
51778;SDS011;37843;53.266;6.746;2022-08-11T10:05:47;1.52;;;1.42;;
51778;SDS011;37843;53.266;6.746;2022-08-11T10:08:32;2.10;;;1.45;;
51778;SDS011;37843;53.266;6.746;2022-08-11T10:11:00;3.35;;;1.58;;
51778;SDS011;37843;53.266;6.746;2022-08-11T10:13:29;2.10;;;1.20;;
51778;SDS011;37843;53.266;6.746;2022-08-11T10:15:59;3.58;;;1.95;;
51778;SDS011;37843;53.266;6.746;2022-08-11T10:18:32;2.28;;;1.55;;
51778;SDS011;37843;53.266;6.746;2022-08-11T10:23:59;2.97;;;1.38;;
51778;SDS011;37843;53.266;6.746;2022-08-11T10:29:20;4.10;;;1.42;;
51778;SDS011;37843;53.266;6.746;2022-08-11T10:32:06;2.50;;;1.63;;
51778;SDS011;37843;53.266;6.746;2022-08-11T10:34:52;3.75;;;1.50;;
51778;SDS011;37843;53.266;6.746;2022-08-11T10:37:19;2.15;;;1.45;;
51778;SDS011;37843;53.266;6.746;2022-08-11T10:39:46;2.67;;;1.30;;
51778;SDS011;37843;53.266;6.746;2022-08-11T10:42:13;3.65;;;1.95;;
51778;SDS011;37843;53.266;6.746;2022-08-11T10:44:59;1.98;;;1.42;;
51778;SDS011;37843;53.266;6.746;2022-08-11T10:47:27;2.78;;;1.25;;
51778;SDS011;37843;53.266;6.746;2022-08-11T10:50:03;3.58;;;1.50;;
51778;SDS011;37843;53.266;6.746;2022-08-11T10:52:48;2.00;;;1.58;;
51778;SDS011;37843;53.266;6.746;2022-08-11T10:55:37;2.38;;;1.50;;
51778;SDS011;37843;53.266;6.746;2022-08-11T10:58:22;4.38;;;1.63;;
51778;SDS011;37843;53.266;6.746;2022-08-11T11:01:08;1.83;;;1.30;;
51778;SDS011;37843;53.266;6.746;2022-08-11T11:03:35;3.67;;;1.75;;
51778;SDS011;37843;53.266;6.746;2022-08-11T11:06:07;2.45;;;1.38;;
51778;SDS011;37843;53.266;6.746;2022-08-11T11:08:36;2.40;;;1.73;;
51778;SDS011;37843;53.266;6.746;2022-08-11T11:11:20;2.15;;;1.80;;
51778;SDS011;37843;53.266;6.746;2022-08-11T11:13:49;2.10;;;1.48;;
51778;SDS011;37843;53.266;6.746;2022-08-11T11:16:35;1.50;;;1.40;;
51778;SDS011;37843;53.266;6.746;2022-08-11T11:19:14;1.73;;;1.52;;
51778;SDS011;37843;53.266;6.746;2022-08-11T11:21:43;2.97;;;1.40;;
51778;SDS011;37843;53.266;6.746;2022-08-11T11:26:42;5.38;;;1.65;;
51778;SDS011;37843;53.266;6.746;2022-08-11T11:29:18;3.88;;;1.50;;
51778;SDS011;37843;53.266;6.746;2022-08-11T11:34:41;3.78;;;1.67;;
51778;SDS011;37843;53.266;6.746;2022-08-11T11:37:12;3.22;;;1.73;;
51778;SDS011;37843;53.266;6.746;2022-08-11T11:39:41;2.50;;;1.48;;
51778;SDS011;37843;53.266;6.746;2022-08-11T11:42:09;1.73;;;1.50;;
51778;SDS011;37843;53.266;6.746;2022-08-11T11:44:37;3.25;;;1.55;;
51778;SDS011;37843;53.266;6.746;2022-08-11T11:47:04;1.55;;;1.45;;
51778;SDS011;37843;53.266;6.746;2022-08-11T11:49:31;3.28;;;1.60;;
51778;SDS011;37843;53.266;6.746;2022-08-11T11:52:00;1.70;;;1.20;;
51778;SDS011;37843;53.266;6.746;2022-08-11T11:54:28;3.03;;;1.50;;
51778;SDS011;37843;53.266;6.746;2022-08-11T11:56:55;4.60;;;1.88;;
51778;SDS011;37843;53.266;6.746;2022-08-11T11:59:23;3.55;;;1.30;;
51778;SDS011;37843;53.266;6.746;2022-08-11T12:02:10;1.70;;;1.60;;
51778;SDS011;37843;53.266;6.746;2022-08-11T12:04:37;1.85;;;1.75;;
51778;SDS011;37843;53.266;6.746;2022-08-11T12:07:04;2.80;;;1.90;;
51778;SDS011;37843;53.266;6.746;2022-08-11T12:10:08;4.10;;;1.65;;
51778;SDS011;37843;53.266;6.746;2022-08-11T12:12:34;3.45;;;1.80;;
51778;SDS011;37843;53.266;6.746;2022-08-11T12:15:19;6.00;;;2.03;;
51778;SDS011;37843;53.266;6.746;2022-08-11T12:17:46;1.95;;;1.60;;
51778;SDS011;37843;53.266;6.746;2022-08-11T12:20:12;1.65;;;1.48;;
51778;SDS011;37843;53.266;6.746;2022-08-11T12:22:43;2.20;;;1.55;;
51778;SDS011;37843;53.266;6.746;2022-08-11T12:25:28;2.00;;;1.50;;
51778;SDS011;37843;53.266;6.746;2022-08-11T12:28:13;2.17;;;1.75;;
51778;SDS011;37843;53.266;6.746;2022-08-11T12:30:39;1.88;;;1.50;;
51778;SDS011;37843;53.266;6.746;2022-08-11T12:33:06;2.15;;;1.30;;
51778;SDS011;37843;53.266;6.746;2022-08-11T12:35:32;1.83;;;1.42;;
51778;SDS011;37843;53.266;6.746;2022-08-11T12:37:59;1.90;;;1.52;;
51778;SDS011;37843;53.266;6.746;2022-08-11T12:40:27;2.97;;;1.45;;
51778;SDS011;37843;53.266;6.746;2022-08-11T12:43:16;2.10;;;1.65;;
51778;SDS011;37843;53.266;6.746;2022-08-11T12:46:03;2.65;;;1.40;;
51778;SDS011;37843;53.266;6.746;2022-08-11T12:48:30;1.65;;;1.55;;
51778;SDS011;37843;53.266;6.746;2022-08-11T12:51:18;1.67;;;1.58;;
51778;SDS011;37843;53.266;6.746;2022-08-11T12:56:31;2.58;;;1.40;;
51778;SDS011;37843;53.266;6.746;2022-08-11T12:59:20;1.52;;;1.40;;
51778;SDS011;37843;53.266;6.746;2022-08-11T13:02:06;1.85;;;1.30;;
51778;SDS011;37843;53.266;6.746;2022-08-11T13:04:51;1.60;;;1.38;;
51778;SDS011;37843;53.266;6.746;2022-08-11T13:07:24;2.08;;;1.50;;
51778;SDS011;37843;53.266;6.746;2022-08-11T13:09:50;6.97;;;1.60;;
51778;SDS011;37843;53.266;6.746;2022-08-11T13:12:17;3.53;;;1.45;;
51778;SDS011;37843;53.266;6.746;2022-08-11T13:15:02;4.47;;;1.40;;
51778;SDS011;37843;53.266;6.746;2022-08-11T13:17:29;2.72;;;1.50;;
51778;SDS011;37843;53.266;6.746;2022-08-11T13:19:57;3.22;;;1.50;;
51778;SDS011;37843;53.266;6.746;2022-08-11T13:22:23;2.70;;;1.60;;
51778;SDS011;37843;53.266;6.746;2022-08-11T13:24:50;2.42;;;1.52;;
51778;SDS011;37843;53.266;6.746;2022-08-11T13:27:19;2.90;;;1.60;;
51778;SDS011;37843;53.266;6.746;2022-08-11T13:29:46;4.72;;;2.10;;
51778;SDS011;37843;53.266;6.746;2022-08-11T13:32:14;2.13;;;1.42;;
51778;SDS011;37843;53.266;6.746;2022-08-11T13:34:41;2.40;;;1.30;;
51778;SDS011;37843;53.266;6.746;2022-08-11T13:37:10;5.03;;;1.80;;
51778;SDS011;37843;53.266;6.746;2022-08-11T13:39:39;1.67;;;1.45;;
51778;SDS011;37843;53.266;6.746;2022-08-11T13:42:08;3.00;;;1.70;;
51778;SDS011;37843;53.266;6.746;2022-08-11T13:44:34;2.63;;;1.40;;
51778;SDS011;37843;53.266;6.746;2022-08-11T13:47:03;2.03;;;1.65;;
51778;SDS011;37843;53.266;6.746;2022-08-11T13:49:29;2.83;;;1.73;;
51778;SDS011;37843;53.266;6.746;2022-08-11T13:51:56;4.10;;;1.70;;
51778;SDS011;37843;53.266;6.746;2022-08-11T13:54:27;3.25;;;1.60;;
51778;SDS011;37843;53.266;6.746;2022-08-11T13:56:55;1.60;;;1.50;;
51778;SDS011;37843;53.266;6.746;2022-08-11T13:59:22;2.10;;;1.90;;
51778;SDS011;37843;53.266;6.746;2022-08-11T14:01:51;2.28;;;1.73;;
51778;SDS011;37843;53.266;6.746;2022-08-11T14:04:26;2.58;;;1.25;;
51778;SDS011;37843;53.266;6.746;2022-08-11T14:06:53;2.55;;;1.58;;
51778;SDS011;37843;53.266;6.746;2022-08-11T14:09:25;4.70;;;1.52;;
51778;SDS011;37843;53.266;6.746;2022-08-11T14:11:52;3.08;;;1.58;;
51778;SDS011;37843;53.266;6.746;2022-08-11T14:14:39;2.33;;;1.40;;
51778;SDS011;37843;53.266;6.746;2022-08-11T14:17:05;2.08;;;1.50;;
51778;SDS011;37843;53.266;6.746;2022-08-11T14:19:37;1.85;;;1.50;;
51778;SDS011;37843;53.266;6.746;2022-08-11T14:22:04;3.55;;;1.85;;
51778;SDS011;37843;53.266;6.746;2022-08-11T14:24:38;3.10;;;1.80;;
51778;SDS011;37843;53.266;6.746;2022-08-11T14:27:11;2.88;;;1.85;;
51778;SDS011;37843;53.266;6.746;2022-08-11T14:29:37;1.70;;;1.45;;
51778;SDS011;37843;53.266;6.746;2022-08-11T14:32:04;2.58;;;1.42;;
51778;SDS011;37843;53.266;6.746;2022-08-11T14:34:31;2.70;;;1.25;;
51778;SDS011;37843;53.266;6.746;2022-08-11T14:37:05;3.25;;;1.63;;
51778;SDS011;37843;53.266;6.746;2022-08-11T14:39:33;4.50;;;1.65;;
51778;SDS011;37843;53.266;6.746;2022-08-11T14:42:01;4.70;;;1.80;;
51778;SDS011;37843;53.266;6.746;2022-08-11T14:45:06;3.88;;;1.60;;
51778;SDS011;37843;53.266;6.746;2022-08-11T14:47:56;4.35;;;1.80;;
51778;SDS011;37843;53.266;6.746;2022-08-11T14:50:25;2.97;;;1.60;;
51778;SDS011;37843;53.266;6.746;2022-08-11T14:52:59;3.13;;;1.60;;
51778;SDS011;37843;53.266;6.746;2022-08-11T14:55:26;2.33;;;1.70;;
51778;SDS011;37843;53.266;6.746;2022-08-11T14:58:18;2.05;;;1.55;;
51778;SDS011;37843;53.266;6.746;2022-08-11T15:00:44;9.60;;;1.90;;
51778;SDS011;37843;53.266;6.746;2022-08-11T15:03:11;2.95;;;1.85;;
51778;SDS011;37843;53.266;6.746;2022-08-11T15:05:48;3.15;;;1.77;;
51778;SDS011;37843;53.266;6.746;2022-08-11T15:08:16;1.98;;;1.48;;
51778;SDS011;37843;53.266;6.746;2022-08-11T15:10:43;3.40;;;1.55;;
51778;SDS011;37843;53.266;6.746;2022-08-11T15:13:09;2.30;;;1.58;;
51778;SDS011;37843;53.266;6.746;2022-08-11T15:15:35;1.92;;;1.73;;
51778;SDS011;37843;53.266;6.746;2022-08-11T15:18:21;2.65;;;1.95;;
51778;SDS011;37843;53.266;6.746;2022-08-11T15:20:48;4.05;;;1.85;;
51778;SDS011;37843;53.266;6.746;2022-08-11T15:23:33;3.70;;;1.70;;
51778;SDS011;37843;53.266;6.746;2022-08-11T15:26:36;3.67;;;1.50;;
51778;SDS011;37843;53.266;6.746;2022-08-11T15:29:22;3.13;;;1.70;;
51778;SDS011;37843;53.266;6.746;2022-08-11T15:32:10;4.55;;;1.75;;
51778;SDS011;37843;53.266;6.746;2022-08-11T15:34:46;3.47;;;1.75;;
51778;SDS011;37843;53.266;6.746;2022-08-11T15:37:33;2.40;;;1.50;;
51778;SDS011;37843;53.266;6.746;2022-08-11T15:43:07;2.85;;;1.77;;
51778;SDS011;37843;53.266;6.746;2022-08-11T15:45:54;2.72;;;1.40;;
51778;SDS011;37843;53.266;6.746;2022-08-11T15:48:28;2.00;;;1.80;;
51778;SDS011;37843;53.266;6.746;2022-08-11T15:50:56;3.88;;;1.75;;
51778;SDS011;37843;53.266;6.746;2022-08-11T15:53:33;1.95;;;1.63;;
51778;SDS011;37843;53.266;6.746;2022-08-11T15:56:03;2.65;;;1.70;;
51778;SDS011;37843;53.266;6.746;2022-08-11T15:58:31;2.47;;;1.60;;
51778;SDS011;37843;53.266;6.746;2022-08-11T16:01:18;1.60;;;1.50;;
51778;SDS011;37843;53.266;6.746;2022-08-11T16:04:08;3.95;;;1.58;;
51778;SDS011;37843;53.266;6.746;2022-08-11T16:06:41;5.35;;;1.58;;
51778;SDS011;37843;53.266;6.746;2022-08-11T16:09:07;3.50;;;1.77;;
51778;SDS011;37843;53.266;6.746;2022-08-11T16:11:35;3.28;;;1.60;;
51778;SDS011;37843;53.266;6.746;2022-08-11T16:14:02;1.95;;;1.42;;
51778;SDS011;37843;53.266;6.746;2022-08-11T16:16:48;1.70;;;1.60;;
51778;SDS011;37843;53.266;6.746;2022-08-11T16:19:15;3.38;;;2.00;;
51778;SDS011;37843;53.266;6.746;2022-08-11T16:21:43;3.20;;;1.88;;
51778;SDS011;37843;53.266;6.746;2022-08-11T16:24:11;3.42;;;1.70;;
51778;SDS011;37843;53.266;6.746;2022-08-11T16:26:40;1.95;;;1.60;;
51778;SDS011;37843;53.266;6.746;2022-08-11T16:29:07;3.00;;;1.60;;
51778;SDS011;37843;53.266;6.746;2022-08-11T16:31:35;2.05;;;1.50;;
51778;SDS011;37843;53.266;6.746;2022-08-11T16:34:02;3.53;;;1.50;;
51778;SDS011;37843;53.266;6.746;2022-08-11T16:36:29;2.17;;;1.50;;
51778;SDS011;37843;53.266;6.746;2022-08-11T16:39:14;3.47;;;1.40;;
51778;SDS011;37843;53.266;6.746;2022-08-11T16:41:44;4.47;;;1.52;;
51778;SDS011;37843;53.266;6.746;2022-08-11T16:44:29;1.40;;;1.30;;
51778;SDS011;37843;53.266;6.746;2022-08-11T16:47:15;3.25;;;1.70;;
51778;SDS011;37843;53.266;6.746;2022-08-11T16:49:46;2.72;;;1.40;;
51778;SDS011;37843;53.266;6.746;2022-08-11T16:52:16;1.90;;;1.63;;
51778;SDS011;37843;53.266;6.746;2022-08-11T16:54:42;5.40;;;1.60;;
51778;SDS011;37843;53.266;6.746;2022-08-11T16:57:18;1.75;;;1.65;;
51778;SDS011;37843;53.266;6.746;2022-08-11T17:00:05;1.95;;;1.73;;
51778;SDS011;37843;53.266;6.746;2022-08-11T17:02:38;2.20;;;1.40;;
51778;SDS011;37843;53.266;6.746;2022-08-11T17:05:34;1.95;;;1.40;;
51778;SDS011;37843;53.266;6.746;2022-08-11T17:08:19;2.22;;;1.50;;
51778;SDS011;37843;53.266;6.746;2022-08-11T17:11:09;3.35;;;1.60;;
51778;SDS011;37843;53.266;6.746;2022-08-11T17:13:56;1.75;;;1.30;;
51778;SDS011;37843;53.266;6.746;2022-08-11T17:16:27;1.40;;;1.27;;
51778;SDS011;37843;53.266;6.746;2022-08-11T17:19:04;2.28;;;1.45;;
51778;SDS011;37843;53.266;6.746;2022-08-11T17:21:48;3.70;;;1.67;;
51778;SDS011;37843;53.266;6.746;2022-08-11T17:24:38;2.35;;;1.40;;
51778;SDS011;37843;53.266;6.746;2022-08-11T17:27:07;4.35;;;1.73;;
51778;SDS011;37843;53.266;6.746;2022-08-11T17:29:41;1.35;;;1.25;;
51778;SDS011;37843;53.266;6.746;2022-08-11T17:32:13;1.80;;;1.58;;
51778;SDS011;37843;53.266;6.746;2022-08-11T17:35:07;9.52;;;1.70;;
51778;SDS011;37843;53.266;6.746;2022-08-11T17:40:38;3.33;;;1.50;;
51778;SDS011;37843;53.266;6.746;2022-08-11T17:43:44;2.05;;;1.35;;
51778;SDS011;37843;53.266;6.746;2022-08-11T17:46:29;1.25;;;1.13;;
51778;SDS011;37843;53.266;6.746;2022-08-11T17:49:14;2.15;;;1.08;;
51778;SDS011;37843;53.266;6.746;2022-08-11T17:51:44;2.70;;;1.40;;
51778;SDS011;37843;53.266;6.746;2022-08-11T17:54:32;2.40;;;1.30;;
51778;SDS011;37843;53.266;6.746;2022-08-11T17:57:19;3.97;;;1.20;;
51778;SDS011;37843;53.266;6.746;2022-08-11T18:00:06;1.40;;;1.20;;
51778;SDS011;37843;53.266;6.746;2022-08-11T18:02:34;3.42;;;1.30;;
51778;SDS011;37843;53.266;6.746;2022-08-11T18:05:31;4.30;;;1.40;;
51778;SDS011;37843;53.266;6.746;2022-08-11T18:07:58;1.98;;;1.38;;
51778;SDS011;37843;53.266;6.746;2022-08-11T18:10:44;3.45;;;1.33;;
51778;SDS011;37843;53.266;6.746;2022-08-11T18:13:30;1.92;;;1.33;;
51778;SDS011;37843;53.266;6.746;2022-08-11T18:16:18;2.60;;;1.67;;
51778;SDS011;37843;53.266;6.746;2022-08-11T18:19:04;1.70;;;1.40;;
51778;SDS011;37843;53.266;6.746;2022-08-11T18:21:49;6.07;;;1.40;;
51778;SDS011;37843;53.266;6.746;2022-08-11T18:24:39;2.55;;;1.55;;
51778;SDS011;37843;53.266;6.746;2022-08-11T18:27:27;2.40;;;1.20;;
51778;SDS011;37843;53.266;6.746;2022-08-11T18:30:14;4.72;;;1.83;;
51778;SDS011;37843;53.266;6.746;2022-08-11T18:32:59;5.22;;;2.95;;
51778;SDS011;37843;53.266;6.746;2022-08-11T18:35:47;3.40;;;1.77;;
51778;SDS011;37843;53.266;6.746;2022-08-11T18:38:33;2.70;;;1.60;;
51778;SDS011;37843;53.266;6.746;2022-08-11T18:41:19;9.10;;;1.42;;
51778;SDS011;37843;53.266;6.746;2022-08-11T18:44:04;2.58;;;1.50;;
51778;SDS011;37843;53.266;6.746;2022-08-11T18:46:50;2.17;;;1.60;;
51778;SDS011;37843;53.266;6.746;2022-08-11T18:49:37;3.35;;;1.95;;
51778;SDS011;37843;53.266;6.746;2022-08-11T18:52:23;2.70;;;1.58;;
51778;SDS011;37843;53.266;6.746;2022-08-11T18:55:10;2.90;;;1.48;;
51778;SDS011;37843;53.266;6.746;2022-08-11T18:57:55;2.90;;;1.60;;
51778;SDS011;37843;53.266;6.746;2022-08-11T19:00:41;4.30;;;1.75;;
51778;SDS011;37843;53.266;6.746;2022-08-11T19:03:26;3.80;;;1.92;;
51778;SDS011;37843;53.266;6.746;2022-08-11T19:06:12;4.97;;;1.75;;